sensor_id;sensor_type;location;lat;lon;timestamp;pressure;altitude;pressure_sealevel;temperature;humidity
65329;BME280;51941;52.210;5.158;2023-02-11T00:00:27;103300.78;;;7.65;82.50
65329;BME280;51941;52.210;5.158;2023-02-11T00:02:53;103319.00;;;7.76;82.72
65329;BME280;51941;52.210;5.158;2023-02-11T00:05:20;103325.34;;;7.83;82.69
65329;BME280;51941;52.210;5.158;2023-02-11T00:07:47;103324.00;;;7.79;82.76
65329;BME280;51941;52.210;5.158;2023-02-11T00:10:14;103335.06;;;7.83;82.87
65329;BME280;51941;52.210;5.158;2023-02-11T00:12:42;103322.69;;;7.83;82.73
65329;BME280;51941;52.210;5.158;2023-02-11T00:15:09;103315.00;;;7.90;82.44
65329;BME280;51941;52.210;5.158;2023-02-11T00:17:36;103310.56;;;7.90;82.52
65329;BME280;51941;52.210;5.158;2023-02-11T00:20:03;103300.97;;;7.89;82.59
65329;BME280;51941;52.210;5.158;2023-02-11T00:22:30;103305.06;;;7.84;82.66
65329;BME280;51941;52.210;5.158;2023-02-11T00:24:57;103308.69;;;7.83;82.57
65329;BME280;51941;52.210;5.158;2023-02-11T00:27:24;103308.00;;;7.81;82.26
65329;BME280;51941;52.210;5.158;2023-02-11T00:29:52;103315.69;;;7.74;82.29
65329;BME280;51941;52.210;5.158;2023-02-11T00:32:19;103315.91;;;7.63;82.57
65329;BME280;51941;52.210;5.158;2023-02-11T00:34:46;103331.06;;;7.61;82.74
65329;BME280;51941;52.210;5.158;2023-02-11T00:37:17;103329.75;;;7.47;83.22
65329;BME280;51941;52.210;5.158;2023-02-11T00:39:43;103334.13;;;7.39;83.94
65329;BME280;51941;52.210;5.158;2023-02-11T00:42:13;103320.94;;;7.39;83.84
65329;BME280;51941;52.210;5.158;2023-02-11T00:44:40;103325.31;;;7.48;83.40
65329;BME280;51941;52.210;5.158;2023-02-11T00:47:08;103334.19;;;7.47;83.50
65329;BME280;51941;52.210;5.158;2023-02-11T00:49:35;103322.19;;;7.44;83.49
65329;BME280;51941;52.210;5.158;2023-02-11T00:52:04;103324.41;;;7.39;83.33
65329;BME280;51941;52.210;5.158;2023-02-11T00:54:33;103324.56;;;7.38;83.10
65329;BME280;51941;52.210;5.158;2023-02-11T00:57:00;103286.00;;;7.09;83.88
65329;BME280;51941;52.210;5.158;2023-02-11T00:59:27;103317.00;;;7.25;83.99
65329;BME280;51941;52.210;5.158;2023-02-11T01:01:54;103281.56;;;7.10;83.89
65329;BME280;51941;52.210;5.158;2023-02-11T01:04:22;103298.56;;;7.25;83.84
65329;BME280;51941;52.210;5.158;2023-02-11T01:06:50;103297.59;;;7.26;84.00
65329;BME280;51941;52.210;5.158;2023-02-11T01:09:17;103254.72;;;7.06;83.64
65329;BME280;51941;52.210;5.158;2023-02-11T01:11:45;103294.25;;;7.24;83.86
65329;BME280;51941;52.210;5.158;2023-02-11T01:14:12;103291.91;;;7.21;84.11
65329;BME280;51941;52.210;5.158;2023-02-11T01:16:39;103288.44;;;7.20;83.72
65329;BME280;51941;52.210;5.158;2023-02-11T01:19:06;103285.94;;;7.19;83.76
65329;BME280;51941;52.210;5.158;2023-02-11T01:21:34;103293.63;;;7.12;83.84
65329;BME280;51941;52.210;5.158;2023-02-11T01:24:01;103259.81;;;6.90;83.86
65329;BME280;51941;52.210;5.158;2023-02-11T01:26:27;103296.31;;;7.03;83.93
65329;BME280;51941;52.210;5.158;2023-02-11T01:28:58;103293.06;;;6.91;83.86
65329;BME280;51941;52.210;5.158;2023-02-11T01:31:26;103307.47;;;6.87;83.82
65329;BME280;51941;52.210;5.158;2023-02-11T01:33:53;103307.38;;;6.79;84.40
65329;BME280;51941;52.210;5.158;2023-02-11T01:36:20;103251.69;;;6.46;84.24
65329;BME280;51941;52.210;5.158;2023-02-11T01:38:48;103309.91;;;6.71;84.44
65329;BME280;51941;52.210;5.158;2023-02-11T01:41:15;103303.25;;;6.67;84.67
65329;BME280;51941;52.210;5.158;2023-02-11T01:43:45;103299.41;;;6.61;84.59
65329;BME280;51941;52.210;5.158;2023-02-11T01:46:29;103306.03;;;6.65;84.76
65329;BME280;51941;52.210;5.158;2023-02-11T01:49:02;103299.25;;;6.72;84.81
65329;BME280;51941;52.210;5.158;2023-02-11T01:51:33;103312.78;;;6.77;84.76
65329;BME280;51941;52.210;5.158;2023-02-11T01:54:06;103315.97;;;6.81;85.09
65329;BME280;51941;52.210;5.158;2023-02-11T01:56:54;103308.91;;;6.81;84.77
65329;BME280;51941;52.210;5.158;2023-02-11T01:59:42;103300.31;;;6.79;84.62
65329;BME280;51941;52.210;5.158;2023-02-11T02:02:14;103313.91;;;6.75;85.16
65329;BME280;51941;52.210;5.158;2023-02-11T02:04:46;103307.41;;;6.69;84.96
65329;BME280;51941;52.210;5.158;2023-02-11T02:07:21;103308.84;;;6.64;85.07
65329;BME280;51941;52.210;5.158;2023-02-11T02:10:04;103305.09;;;6.56;85.23
65329;BME280;51941;52.210;5.158;2023-02-11T02:12:35;103300.28;;;6.52;84.99
65329;BME280;51941;52.210;5.158;2023-02-11T02:15:28;103299.06;;;6.46;85.45
65329;BME280;51941;52.210;5.158;2023-02-11T02:18:15;103300.03;;;6.45;85.62
65329;BME280;51941;52.210;5.158;2023-02-11T02:21:07;103299.34;;;6.43;85.42
65329;BME280;51941;52.210;5.158;2023-02-11T02:24:02;103303.22;;;6.39;85.50
65329;BME280;51941;52.210;5.158;2023-02-11T02:26:59;103309.47;;;6.38;86.02
65329;BME280;51941;52.210;5.158;2023-02-11T02:30:03;103292.69;;;6.39;85.95
65329;BME280;51941;52.210;5.158;2023-02-11T02:32:44;103290.50;;;6.35;86.20
65329;BME280;51941;52.210;5.158;2023-02-11T02:35:23;103282.88;;;6.32;86.31
65329;BME280;51941;52.210;5.158;2023-02-11T02:37:56;103276.78;;;6.31;86.21
65329;BME280;51941;52.210;5.158;2023-02-11T02:40:30;103282.88;;;6.32;86.48
65329;BME280;51941;52.210;5.158;2023-02-11T02:42:59;103271.84;;;6.28;86.84
65329;BME280;51941;52.210;5.158;2023-02-11T02:45:27;103275.00;;;6.32;86.87
65329;BME280;51941;52.210;5.158;2023-02-11T02:47:55;103280.38;;;6.40;87.02
65329;BME280;51941;52.210;5.158;2023-02-11T02:50:26;103287.00;;;6.44;86.89
65329;BME280;51941;52.210;5.158;2023-02-11T02:53:03;103296.13;;;6.49;87.01
65329;BME280;51941;52.210;5.158;2023-02-11T02:55:43;103293.50;;;6.49;87.01
65329;BME280;51941;52.210;5.158;2023-02-11T02:58:34;103298.34;;;6.54;87.17
65329;BME280;51941;52.210;5.158;2023-02-11T03:01:12;103290.44;;;6.54;87.34
65329;BME280;51941;52.210;5.158;2023-02-11T03:03:47;103290.97;;;6.57;87.01
65329;BME280;51941;52.210;5.158;2023-02-11T03:06:21;103289.84;;;6.60;86.93
65329;BME280;51941;52.210;5.158;2023-02-11T03:08:54;103284.47;;;6.62;87.01
65329;BME280;51941;52.210;5.158;2023-02-11T03:11:23;103249.91;;;6.47;86.68
65329;BME280;51941;52.210;5.158;2023-02-11T03:13:51;103274.63;;;6.64;86.71
65329;BME280;51941;52.210;5.158;2023-02-11T03:16:22;103281.13;;;6.60;86.74
65329;BME280;51941;52.210;5.158;2023-02-11T03:18:55;103274.22;;;6.59;86.53
65329;BME280;51941;52.210;5.158;2023-02-11T03:21:24;103274.53;;;6.55;86.38
65329;BME280;51941;52.210;5.158;2023-02-11T03:23:54;103267.03;;;6.51;86.46
65329;BME280;51941;52.210;5.158;2023-02-11T03:26:22;103260.56;;;6.45;86.52
65329;BME280;51941;52.210;5.158;2023-02-11T03:28:54;103265.97;;;6.44;86.63
65329;BME280;51941;52.210;5.158;2023-02-11T03:31:29;103257.25;;;6.43;86.36
65329;BME280;51941;52.210;5.158;2023-02-11T03:34:05;103264.31;;;6.43;86.33
65329;BME280;51941;52.210;5.158;2023-02-11T03:36:38;103247.97;;;6.39;86.47
65329;BME280;51941;52.210;5.158;2023-02-11T03:39:11;103259.88;;;6.43;86.47
65329;BME280;51941;52.210;5.158;2023-02-11T03:41:41;103262.22;;;6.46;86.59
65329;BME280;51941;52.210;5.158;2023-02-11T03:44:09;103249.91;;;6.47;86.81
65329;BME280;51941;52.210;5.158;2023-02-11T03:46:41;103251.53;;;6.48;86.78
65329;BME280;51941;52.210;5.158;2023-02-11T03:49:14;103247.09;;;6.48;86.94
65329;BME280;51941;52.210;5.158;2023-02-11T03:51:43;103252.38;;;6.48;86.83
65329;BME280;51941;52.210;5.158;2023-02-11T03:54:14;103253.38;;;6.47;86.90
65329;BME280;51941;52.210;5.158;2023-02-11T03:56:48;103247.78;;;6.50;86.84
65329;BME280;51941;52.210;5.158;2023-02-11T03:59:16;103244.88;;;6.53;86.61
65329;BME280;51941;52.210;5.158;2023-02-11T04:01:43;103253.59;;;6.54;86.57
65329;BME280;51941;52.210;5.158;2023-02-11T04:04:11;103215.88;;;6.36;86.69
65329;BME280;51941;52.210;5.158;2023-02-11T04:06:38;103255.50;;;6.62;86.58
65329;BME280;51941;52.210;5.158;2023-02-11T04:09:05;103244.16;;;6.61;87.04
65329;BME280;51941;52.210;5.158;2023-02-11T04:11:33;103249.66;;;6.68;86.84
65329;BME280;51941;52.210;5.158;2023-02-11T04:14:00;103217.63;;;6.45;87.15
65329;BME280;51941;52.210;5.158;2023-02-11T04:16:26;103246.88;;;6.69;87.17
65329;BME280;51941;52.210;5.158;2023-02-11T04:18:54;103251.72;;;6.74;87.21
65329;BME280;51941;52.210;5.158;2023-02-11T04:21:22;103222.03;;;6.54;87.50
65329;BME280;51941;52.210;5.158;2023-02-11T04:23:49;103253.34;;;6.75;87.65
65329;BME280;51941;52.210;5.158;2023-02-11T04:26:16;103238.72;;;6.72;87.74
65329;BME280;51941;52.210;5.158;2023-02-11T04:28:43;103247.25;;;6.74;87.90
65329;BME280;51941;52.210;5.158;2023-02-11T04:31:09;103250.22;;;6.71;88.25
65329;BME280;51941;52.210;5.158;2023-02-11T04:33:37;103250.44;;;6.78;88.09
65329;BME280;51941;52.210;5.158;2023-02-11T04:36:04;103262.50;;;6.80;87.95
65329;BME280;51941;52.210;5.158;2023-02-11T04:38:32;103258.72;;;6.83;87.93
65329;BME280;51941;52.210;5.158;2023-02-11T04:40:59;103260.91;;;6.87;88.24
65329;BME280;51941;52.210;5.158;2023-02-11T04:43:25;103266.75;;;6.91;87.90
65329;BME280;51941;52.210;5.158;2023-02-11T04:45:55;103265.91;;;6.90;87.93
65329;BME280;51941;52.210;5.158;2023-02-11T04:48:22;103272.84;;;6.91;88.01
65329;BME280;51941;52.210;5.158;2023-02-11T04:50:49;103278.63;;;6.95;87.75
65329;BME280;51941;52.210;5.158;2023-02-11T04:53:15;103277.38;;;6.99;87.57
65329;BME280;51941;52.210;5.158;2023-02-11T04:55:43;103273.44;;;7.03;87.41
65329;BME280;51941;52.210;5.158;2023-02-11T04:58:10;103272.31;;;7.06;87.62
65329;BME280;51941;52.210;5.158;2023-02-11T05:00:37;103277.44;;;7.07;87.88
65329;BME280;51941;52.210;5.158;2023-02-11T05:03:04;103177.38;;;6.35;88.17
65329;BME280;51941;52.210;5.158;2023-02-11T05:05:31;103278.09;;;6.91;88.83
65329;BME280;51941;52.210;5.158;2023-02-11T05:07:58;103270.13;;;7.01;88.99
65329;BME280;51941;52.210;5.158;2023-02-11T05:10:24;103206.75;;;6.57;88.88
65329;BME280;51941;52.210;5.158;2023-02-11T05:12:52;103279.03;;;7.00;89.43
65329;BME280;51941;52.210;5.158;2023-02-11T05:15:19;103248.19;;;6.83;89.77
65329;BME280;51941;52.210;5.158;2023-02-11T05:17:46;103273.91;;;6.99;89.79
65329;BME280;51941;52.210;5.158;2023-02-11T05:20:13;103258.44;;;6.86;89.93
65329;BME280;51941;52.210;5.158;2023-02-11T05:22:40;103252.38;;;6.76;90.38
65329;BME280;51941;52.210;5.158;2023-02-11T05:25:07;103209.03;;;6.52;90.30
65329;BME280;51941;52.210;5.158;2023-02-11T05:27:34;103256.25;;;6.81;90.72
65329;BME280;51941;52.210;5.158;2023-02-11T05:30:04;103273.63;;;6.92;90.99
65329;BME280;51941;52.210;5.158;2023-02-11T05:32:31;103274.72;;;6.99;90.79
65329;BME280;51941;52.210;5.158;2023-02-11T05:34:57;103281.25;;;6.95;91.32
65329;BME280;51941;52.210;5.158;2023-02-11T05:37:24;103248.03;;;6.84;90.94
65329;BME280;51941;52.210;5.158;2023-02-11T05:39:51;103278.44;;;7.06;91.01
65329;BME280;51941;52.210;5.158;2023-02-11T05:42:18;103269.09;;;7.12;90.98
65329;BME280;51941;52.210;5.158;2023-02-11T05:44:45;103274.06;;;7.15;90.48
65329;BME280;51941;52.210;5.158;2023-02-11T05:47:13;103275.72;;;7.16;90.53
65329;BME280;51941;52.210;5.158;2023-02-11T05:49:40;103276.56;;;7.16;90.56
65329;BME280;51941;52.210;5.158;2023-02-11T05:52:07;103246.88;;;6.97;90.71
65329;BME280;51941;52.210;5.158;2023-02-11T05:54:33;103276.25;;;7.19;90.58
65329;BME280;51941;52.210;5.158;2023-02-11T05:57:00;103273.63;;;7.19;90.62
65329;BME280;51941;52.210;5.158;2023-02-11T05:59:27;103270.31;;;7.17;90.81
65329;BME280;51941;52.210;5.158;2023-02-11T06:01:54;103273.78;;;7.18;90.64
65329;BME280;51941;52.210;5.158;2023-02-11T06:04:22;103275.72;;;7.16;90.78
65329;BME280;51941;52.210;5.158;2023-02-11T06:06:48;103285.38;;;7.25;90.71
65329;BME280;51941;52.210;5.158;2023-02-11T06:09:15;103284.84;;;7.21;90.78
65329;BME280;51941;52.210;5.158;2023-02-11T06:11:42;103295.50;;;7.20;91.28
65329;BME280;51941;52.210;5.158;2023-02-11T06:14:09;103298.00;;;7.21;91.34
65329;BME280;51941;52.210;5.158;2023-02-11T06:16:36;103292.59;;;7.23;90.96
65329;BME280;51941;52.210;5.158;2023-02-11T06:19:03;103292.13;;;7.27;91.14
65329;BME280;51941;52.210;5.158;2023-02-11T06:21:31;103285.06;;;7.28;91.17
65329;BME280;51941;52.210;5.158;2023-02-11T06:23:58;103291.78;;;7.22;91.34
65329;BME280;51941;52.210;5.158;2023-02-11T06:26:25;103294.41;;;7.22;91.76
65329;BME280;51941;52.210;5.158;2023-02-11T06:28:52;103295.59;;;7.28;91.56
65329;BME280;51941;52.210;5.158;2023-02-11T06:31:18;103292.81;;;7.29;91.66
65329;BME280;51941;52.210;5.158;2023-02-11T06:33:45;103292.56;;;7.33;91.55
65329;BME280;51941;52.210;5.158;2023-02-11T06:36:15;103294.09;;;7.35;91.67
65329;BME280;51941;52.210;5.158;2023-02-11T06:38:44;103285.88;;;7.38;91.53
65329;BME280;51941;52.210;5.158;2023-02-11T06:41:11;103288.22;;;7.41;91.36
65329;BME280;51941;52.210;5.158;2023-02-11T06:43:39;103290.69;;;7.43;91.32
65329;BME280;51941;52.210;5.158;2023-02-11T06:46:06;103265.78;;;7.27;91.68
65329;BME280;51941;52.210;5.158;2023-02-11T06:48:33;103295.66;;;7.46;91.48
65329;BME280;51941;52.210;5.158;2023-02-11T06:51:01;103273.16;;;7.34;91.43
65329;BME280;51941;52.210;5.158;2023-02-11T06:53:29;103280.31;;;7.41;91.72
65329;BME280;51941;52.210;5.158;2023-02-11T06:56:01;103279.19;;;7.44;92.07
65329;BME280;51941;52.210;5.158;2023-02-11T06:58:28;103287.38;;;7.41;92.31
65329;BME280;51941;52.210;5.158;2023-02-11T07:00:54;103286.91;;;7.45;92.20
65329;BME280;51941;52.210;5.158;2023-02-11T07:03:21;103286.78;;;7.47;92.04
65329;BME280;51941;52.210;5.158;2023-02-11T07:05:48;103291.28;;;7.54;91.72
65329;BME280;51941;52.210;5.158;2023-02-11T07:08:15;103309.06;;;7.52;91.90
65329;BME280;51941;52.210;5.158;2023-02-11T07:10:42;103286.78;;;7.47;92.04
65329;BME280;51941;52.210;5.158;2023-02-11T07:13:10;103300.56;;;7.58;91.81
65329;BME280;51941;52.210;5.158;2023-02-11T07:15:37;103310.81;;;7.61;92.02
65329;BME280;51941;52.210;5.158;2023-02-11T07:18:04;103306.75;;;7.67;91.69
65329;BME280;51941;52.210;5.158;2023-02-11T07:20:30;103310.19;;;7.67;91.75
65329;BME280;51941;52.210;5.158;2023-02-11T07:22:57;103310.06;;;7.69;91.54
65329;BME280;51941;52.210;5.158;2023-02-11T07:25:25;103281.81;;;7.44;91.67
65329;BME280;51941;52.210;5.158;2023-02-11T07:27:51;103320.75;;;7.67;91.97
65329;BME280;51941;52.210;5.158;2023-02-11T07:30:20;103317.81;;;7.71;91.75
65329;BME280;51941;52.210;5.158;2023-02-11T07:32:47;103321.66;;;7.76;91.53
65329;BME280;51941;52.210;5.158;2023-02-11T07:35:14;103323.16;;;7.79;91.47
65329;BME280;51941;52.210;5.158;2023-02-11T07:37:41;103292.19;;;7.63;91.49
65329;BME280;51941;52.210;5.158;2023-02-11T07:40:09;103321.94;;;7.73;91.77
65329;BME280;51941;52.210;5.158;2023-02-11T07:42:36;103330.91;;;7.80;91.59
65329;BME280;51941;52.210;5.158;2023-02-11T07:45:05;103334.06;;;7.84;91.83
65329;BME280;51941;52.210;5.158;2023-02-11T07:47:34;103330.97;;;7.88;91.55
65329;BME280;51941;52.210;5.158;2023-02-11T07:50:01;103330.53;;;7.93;91.48
65329;BME280;51941;52.210;5.158;2023-02-11T07:52:28;103323.44;;;7.93;91.59
65329;BME280;51941;52.210;5.158;2023-02-11T07:54:55;103327.28;;;7.99;91.37
65329;BME280;51941;52.210;5.158;2023-02-11T07:57:22;103330.44;;;8.02;91.21
65329;BME280;51941;52.210;5.158;2023-02-11T07:59:49;103328.31;;;8.06;91.09
65329;BME280;51941;52.210;5.158;2023-02-11T08:02:16;103331.34;;;8.11;91.02
65329;BME280;51941;52.210;5.158;2023-02-11T08:04:46;103333.69;;;8.14;91.16
65329;BME280;51941;52.210;5.158;2023-02-11T08:07:14;103329.88;;;8.17;91.05
65329;BME280;51941;52.210;5.158;2023-02-11T08:09:41;103333.97;;;8.11;90.92
65329;BME280;51941;52.210;5.158;2023-02-11T08:12:07;103329.06;;;8.16;90.89
65329;BME280;51941;52.210;5.158;2023-02-11T08:14:34;103330.56;;;8.19;90.83
65329;BME280;51941;52.210;5.158;2023-02-11T08:17:02;103321.63;;;8.12;90.91
65329;BME280;51941;52.210;5.158;2023-02-11T08:19:29;103336.19;;;8.24;90.79
65329;BME280;51941;52.210;5.158;2023-02-11T08:21:57;103339.50;;;8.26;90.85
65329;BME280;51941;52.210;5.158;2023-02-11T08:24:25;103333.13;;;8.28;90.80
65329;BME280;51941;52.210;5.158;2023-02-11T08:26:51;103329.78;;;8.26;90.92
65329;BME280;51941;52.210;5.158;2023-02-11T08:29:18;103333.66;;;8.32;90.86
65329;BME280;51941;52.210;5.158;2023-02-11T08:31:46;103334.97;;;8.36;90.87
65329;BME280;51941;52.210;5.158;2023-02-11T08:34:14;103328.19;;;8.33;90.63
65329;BME280;51941;52.210;5.158;2023-02-11T08:36:44;103343.41;;;8.39;90.72
65329;BME280;51941;52.210;5.158;2023-02-11T08:39:15;103349.34;;;8.41;90.65
65329;BME280;51941;52.210;5.158;2023-02-11T08:41:42;103351.84;;;8.43;90.59
65329;BME280;51941;52.210;5.158;2023-02-11T08:44:09;103360.78;;;8.50;90.45
65329;BME280;51941;52.210;5.158;2023-02-11T08:46:36;103346.78;;;8.50;90.42
65329;BME280;51941;52.210;5.158;2023-02-11T08:49:03;103349.94;;;8.53;90.40
65329;BME280;51941;52.210;5.158;2023-02-11T08:51:30;103359.03;;;8.59;90.27
65329;BME280;51941;52.210;5.158;2023-02-11T08:53:57;103364.00;;;8.62;90.18
65329;BME280;51941;52.210;5.158;2023-02-11T08:56:26;103361.25;;;8.71;90.30
65329;BME280;51941;52.210;5.158;2023-02-11T08:58:55;103365.91;;;8.77;90.00
65329;BME280;51941;52.210;5.158;2023-02-11T09:01:23;103361.47;;;8.78;89.82
65329;BME280;51941;52.210;5.158;2023-02-11T09:03:51;103357.28;;;8.67;89.85
65329;BME280;51941;52.210;5.158;2023-02-11T09:06:18;103364.63;;;8.81;89.64
65329;BME280;51941;52.210;5.158;2023-02-11T09:08:48;103376.38;;;8.87;89.67
65329;BME280;51941;52.210;5.158;2023-02-11T09:11:16;103370.47;;;8.93;89.43
65329;BME280;51941;52.210;5.158;2023-02-11T09:13:45;103380.03;;;8.94;89.31
65329;BME280;51941;52.210;5.158;2023-02-11T09:16:16;103346.44;;;8.78;88.96
65329;BME280;51941;52.210;5.158;2023-02-11T09:18:43;103375.25;;;8.98;89.12
65329;BME280;51941;52.210;5.158;2023-02-11T09:21:11;103382.56;;;9.04;88.71
65329;BME280;51941;52.210;5.158;2023-02-11T09:23:38;103389.88;;;9.10;88.66
65329;BME280;51941;52.210;5.158;2023-02-11T09:26:11;103388.22;;;9.09;88.48
65329;BME280;51941;52.210;5.158;2023-02-11T09:28:39;103385.88;;;9.06;88.43
65329;BME280;51941;52.210;5.158;2023-02-11T09:31:09;103394.38;;;9.17;88.26
65329;BME280;51941;52.210;5.158;2023-02-11T09:33:38;103404.09;;;9.17;88.32
65329;BME280;51941;52.210;5.158;2023-02-11T09:36:07;103400.16;;;9.21;88.10
65329;BME280;51941;52.210;5.158;2023-02-11T09:38:33;103400.84;;;9.23;88.29
65329;BME280;51941;52.210;5.158;2023-02-11T09:41:00;103392.75;;;9.25;88.32
65329;BME280;51941;52.210;5.158;2023-02-11T09:43:35;103394.56;;;9.24;88.07
65329;BME280;51941;52.210;5.158;2023-02-11T09:46:04;103391.28;;;9.30;88.15
65329;BME280;51941;52.210;5.158;2023-02-11T09:48:38;103389.00;;;9.35;87.92
65329;BME280;51941;52.210;5.158;2023-02-11T09:51:13;103400.91;;;9.47;87.88
65329;BME280;51941;52.210;5.158;2023-02-11T09:53:42;103404.59;;;9.54;87.87
65329;BME280;51941;52.210;5.158;2023-02-11T09:56:11;103416.50;;;9.67;87.73
65329;BME280;51941;52.210;5.158;2023-02-11T09:58:40;103414.38;;;9.70;87.46
65329;BME280;51941;52.210;5.158;2023-02-11T10:01:13;103419.84;;;9.77;87.05
65329;BME280;51941;52.210;5.158;2023-02-11T10:03:59;103402.31;;;9.68;86.77
65329;BME280;51941;52.210;5.158;2023-02-11T10:06:38;103434.59;;;9.87;86.58
65329;BME280;51941;52.210;5.158;2023-02-11T10:09:17;103445.03;;;9.89;86.25
65329;BME280;51941;52.210;5.158;2023-02-11T10:11:52;103440.72;;;9.96;86.15
65329;BME280;51941;52.210;5.158;2023-02-11T10:14:47;103398.53;;;9.78;85.92
65329;BME280;51941;52.210;5.158;2023-02-11T10:17:25;103437.78;;;9.99;85.35
65329;BME280;51941;52.210;5.158;2023-02-11T10:20:07;103441.56;;;9.97;85.14
65329;BME280;51941;52.210;5.158;2023-02-11T10:22:42;103445.72;;;9.99;85.17
65329;BME280;51941;52.210;5.158;2023-02-11T10:25:19;103443.38;;;9.96;85.23
65329;BME280;51941;52.210;5.158;2023-02-11T10:27:46;103439.72;;;9.89;85.25
65329;BME280;51941;52.210;5.158;2023-02-11T10:30:22;103447.31;;;9.92;85.33
65329;BME280;51941;52.210;5.158;2023-02-11T10:32:57;103452.97;;;9.97;85.48
65329;BME280;51941;52.210;5.158;2023-02-11T10:35:26;103414.03;;;9.73;85.53
65329;BME280;51941;52.210;5.158;2023-02-11T10:37:54;103461.91;;;10.04;85.40
65329;BME280;51941;52.210;5.158;2023-02-11T10:40:23;103462.91;;;10.11;85.60
65329;BME280;51941;52.210;5.158;2023-02-11T10:42:51;103452.63;;;10.08;85.33
65329;BME280;51941;52.210;5.158;2023-02-11T10:45:24;103457.78;;;10.18;85.13
65329;BME280;51941;52.210;5.158;2023-02-11T10:47:53;103459.59;;;10.17;85.00
65329;BME280;51941;52.210;5.158;2023-02-11T10:50:26;103469.41;;;10.33;85.14
65329;BME280;51941;52.210;5.158;2023-02-11T10:53:11;103466.75;;;10.49;85.06
65329;BME280;51941;52.210;5.158;2023-02-11T10:55:48;103461.28;;;10.51;84.36
65329;BME280;51941;52.210;5.158;2023-02-11T10:58:23;103458.81;;;10.49;84.06
65329;BME280;51941;52.210;5.158;2023-02-11T11:00:52;103462.28;;;10.34;83.65
65329;BME280;51941;52.210;5.158;2023-02-11T11:03:21;103460.28;;;10.44;83.59
65329;BME280;51941;52.210;5.158;2023-02-11T11:05:51;103468.41;;;10.42;83.46
65329;BME280;51941;52.210;5.158;2023-02-11T11:08:18;103465.25;;;10.30;82.65
65329;BME280;51941;52.210;5.158;2023-02-11T11:10:46;103461.59;;;10.23;82.71
65329;BME280;51941;52.210;5.158;2023-02-11T11:13:30;103401.19;;;9.86;81.86
65329;BME280;51941;52.210;5.158;2023-02-11T11:16:18;103468.72;;;10.23;81.69
65329;BME280;51941;52.210;5.158;2023-02-11T11:18:47;103463.28;;;10.32;81.61
65329;BME280;51941;52.210;5.158;2023-02-11T11:21:19;103464.94;;;10.34;81.30
65329;BME280;51941;52.210;5.158;2023-02-11T11:23:50;103472.88;;;10.42;80.80
65329;BME280;51941;52.210;5.158;2023-02-11T11:26:18;103482.47;;;10.51;80.57
65329;BME280;51941;52.210;5.158;2023-02-11T11:28:57;103481.47;;;10.68;79.91
65329;BME280;51941;52.210;5.158;2023-02-11T11:31:28;103482.50;;;10.75;79.74
65329;BME280;51941;52.210;5.158;2023-02-11T11:33:58;103481.78;;;10.73;79.16
65329;BME280;51941;52.210;5.158;2023-02-11T11:36:36;103489.25;;;10.69;78.67
65329;BME280;51941;52.210;5.158;2023-02-11T11:39:17;103479.16;;;10.73;78.39
65329;BME280;51941;52.210;5.158;2023-02-11T11:41:52;103491.41;;;10.82;78.13
65329;BME280;51941;52.210;5.158;2023-02-11T11:44:26;103486.94;;;10.91;78.13
65329;BME280;51941;52.210;5.158;2023-02-11T11:47:06;103441.09;;;10.58;77.66
65329;BME280;51941;52.210;5.158;2023-02-11T11:49:44;103477.03;;;10.77;77.57
65329;BME280;51941;52.210;5.158;2023-02-11T11:52:19;103493.22;;;10.74;77.79
65329;BME280;51941;52.210;5.158;2023-02-11T11:54:56;103459.78;;;10.48;77.65
65329;BME280;51941;52.210;5.158;2023-02-11T11:57:26;103500.03;;;10.52;78.20
65329;BME280;51941;52.210;5.158;2023-02-11T11:59:56;103494.88;;;10.58;78.03
65329;BME280;51941;52.210;5.158;2023-02-11T12:02:44;103487.25;;;10.63;78.06
65329;BME280;51941;52.210;5.158;2023-02-11T12:05:23;103473.03;;;10.56;77.57
65329;BME280;51941;52.210;5.158;2023-02-11T12:08:01;103465.25;;;10.63;77.90
65329;BME280;51941;52.210;5.158;2023-02-11T12:10:42;103422.88;;;10.39;77.33
65329;BME280;51941;52.210;5.158;2023-02-11T12:13:25;103478.50;;;10.79;77.14
65329;BME280;51941;52.210;5.158;2023-02-11T12:16:04;103478.31;;;10.97;76.49
65329;BME280;51941;52.210;5.158;2023-02-11T12:18:55;103485.06;;;11.16;76.24
65329;BME280;51941;52.210;5.158;2023-02-11T12:21:35;103474.09;;;11.27;75.74
65329;BME280;51941;52.210;5.158;2023-02-11T12:24:17;103480.88;;;11.37;74.98
65329;BME280;51941;52.210;5.158;2023-02-11T12:26:52;103486.34;;;11.36;74.64
65329;BME280;51941;52.210;5.158;2023-02-11T12:29:30;103470.31;;;11.21;74.60
65329;BME280;51941;52.210;5.158;2023-02-11T12:32:09;103474.63;;;11.22;74.75
65329;BME280;51941;52.210;5.158;2023-02-11T12:34:55;103478.47;;;11.12;75.40
65329;BME280;51941;52.210;5.158;2023-02-11T12:37:38;103439.06;;;10.92;74.73
65329;BME280;51941;52.210;5.158;2023-02-11T12:40:14;103477.13;;;11.07;75.21
65329;BME280;51941;52.210;5.158;2023-02-11T12:42:53;103462.56;;;11.12;75.31
65329;BME280;51941;52.210;5.158;2023-02-11T12:45:52;103479.44;;;11.19;75.13
65329;BME280;51941;52.210;5.158;2023-02-11T12:48:43;103476.13;;;11.17;75.16
65329;BME280;51941;52.210;5.158;2023-02-11T12:51:19;103469.69;;;11.03;75.36
65329;BME280;51941;52.210;5.158;2023-02-11T12:53:59;103472.34;;;11.03;75.17
65329;BME280;51941;52.210;5.158;2023-02-11T12:56:36;103440.41;;;10.80;75.61
65329;BME280;51941;52.210;5.158;2023-02-11T12:59:06;103476.31;;;11.07;75.83
65329;BME280;51941;52.210;5.158;2023-02-11T13:01:39;103475.09;;;11.26;75.47
65329;BME280;51941;52.210;5.158;2023-02-11T13:04:12;103484.81;;;11.41;75.03
65329;BME280;51941;52.210;5.158;2023-02-11T13:06:45;103426.75;;;11.07;74.82
65329;BME280;51941;52.210;5.158;2023-02-11T13:09:17;103472.38;;;11.42;74.30
65329;BME280;51941;52.210;5.158;2023-02-11T13:11:49;103471.94;;;11.30;74.17
65329;BME280;51941;52.210;5.158;2023-02-11T13:14:23;103471.56;;;11.41;74.09
65329;BME280;51941;52.210;5.158;2023-02-11T13:16:53;103426.66;;;10.93;74.51